sensor_id;sensor_type;location;lat;lon;timestamp;P1;durP1;ratioP1;P2;durP2;ratioP2
23258;SDS011;11798;51.528;7.240;2022-12-18T00:02:12;35.03;;;18.43;;
23258;SDS011;11798;51.528;7.240;2022-12-18T00:04:37;33.90;;;17.90;;
23258;SDS011;11798;51.528;7.240;2022-12-18T00:07:03;31.27;;;19.07;;
23258;SDS011;11798;51.528;7.240;2022-12-18T00:09:29;35.63;;;18.57;;
23258;SDS011;11798;51.528;7.240;2022-12-18T00:11:54;34.50;;;18.87;;
23258;SDS011;11798;51.528;7.240;2022-12-18T00:14:20;36.97;;;19.60;;
23258;SDS011;11798;51.528;7.240;2022-12-18T00:16:45;34.73;;;20.23;;
23258;SDS011;11798;51.528;7.240;2022-12-18T00:19:11;34.57;;;18.60;;
23258;SDS011;11798;51.528;7.240;2022-12-18T00:21:38;36.33;;;18.65;;
23258;SDS011;11798;51.528;7.240;2022-12-18T00:24:04;35.73;;;18.43;;
23258;SDS011;11798;51.528;7.240;2022-12-18T00:26:31;35.03;;;18.80;;
23258;SDS011;11798;51.528;7.240;2022-12-18T00:29:02;31.23;;;18.48;;
23258;SDS011;11798;51.528;7.240;2022-12-18T00:31:29;27.13;;;16.90;;
23258;SDS011;11798;51.528;7.240;2022-12-18T00:33:55;30.77;;;17.67;;
23258;SDS011;11798;51.528;7.240;2022-12-18T00:36:23;32.75;;;17.45;;
23258;SDS011;11798;51.528;7.240;2022-12-18T00:38:50;29.98;;;16.52;;
23258;SDS011;11798;51.528;7.240;2022-12-18T00:41:16;33.23;;;17.53;;
23258;SDS011;11798;51.528;7.240;2022-12-18T00:44:03;30.88;;;16.88;;
23258;SDS011;11798;51.528;7.240;2022-12-18T00:46:29;31.52;;;17.83;;
23258;SDS011;11798;51.528;7.240;2022-12-18T00:48:55;33.03;;;17.37;;
23258;SDS011;11798;51.528;7.240;2022-12-18T00:51:20;31.80;;;17.23;;
23258;SDS011;11798;51.528;7.240;2022-12-18T00:53:46;39.30;;;17.37;;
23258;SDS011;11798;51.528;7.240;2022-12-18T00:56:11;30.43;;;17.77;;
23258;SDS011;11798;51.528;7.240;2022-12-18T00:58:37;31.67;;;17.70;;
23258;SDS011;11798;51.528;7.240;2022-12-18T01:01:06;33.87;;;16.80;;
23258;SDS011;11798;51.528;7.240;2022-12-18T01:03:32;30.40;;;16.52;;
23258;SDS011;11798;51.528;7.240;2022-12-18T01:05:58;31.00;;;16.90;;
23258;SDS011;11798;51.528;7.240;2022-12-18T01:08:23;26.97;;;15.43;;
23258;SDS011;11798;51.528;7.240;2022-12-18T01:10:49;26.05;;;16.27;;
23258;SDS011;11798;51.528;7.240;2022-12-18T01:13:15;28.17;;;15.67;;
23258;SDS011;11798;51.528;7.240;2022-12-18T01:15:47;34.13;;;16.33;;
23258;SDS011;11798;51.528;7.240;2022-12-18T01:18:16;31.58;;;16.20;;
23258;SDS011;11798;51.528;7.240;2022-12-18T01:20:42;27.95;;;15.10;;
23258;SDS011;11798;51.528;7.240;2022-12-18T01:23:07;32.80;;;16.83;;
23258;SDS011;11798;51.528;7.240;2022-12-18T01:25:35;29.93;;;16.20;;
23258;SDS011;11798;51.528;7.240;2022-12-18T01:28:01;32.53;;;15.65;;
23258;SDS011;11798;51.528;7.240;2022-12-18T01:30:27;33.22;;;16.20;;
23258;SDS011;11798;51.528;7.240;2022-12-18T01:32:53;32.90;;;16.40;;
23258;SDS011;11798;51.528;7.240;2022-12-18T01:35:19;35.53;;;17.20;;
23258;SDS011;11798;51.528;7.240;2022-12-18T01:37:44;31.30;;;15.90;;
23258;SDS011;11798;51.528;7.240;2022-12-18T01:40:10;30.50;;;17.10;;
23258;SDS011;11798;51.528;7.240;2022-12-18T01:42:36;34.13;;;16.47;;
23258;SDS011;11798;51.528;7.240;2022-12-18T01:47:40;27.05;;;14.57;;
23258;SDS011;11798;51.528;7.240;2022-12-18T01:50:15;29.55;;;13.43;;
23258;SDS011;11798;51.528;7.240;2022-12-18T01:52:56;24.83;;;13.65;;
23258;SDS011;11798;51.528;7.240;2022-12-18T01:55:29;25.30;;;13.50;;
23258;SDS011;11798;51.528;7.240;2022-12-18T01:57:57;30.10;;;14.20;;
23258;SDS011;11798;51.528;7.240;2022-12-18T02:00:24;25.95;;;14.82;;
23258;SDS011;11798;51.528;7.240;2022-12-18T02:02:51;31.60;;;15.25;;
23258;SDS011;11798;51.528;7.240;2022-12-18T02:05:19;27.50;;;14.27;;
23258;SDS011;11798;51.528;7.240;2022-12-18T02:08:37;23.50;;;14.00;;
23258;SDS011;11798;51.528;7.240;2022-12-18T02:16:27;26.60;;;14.40;;
23258;SDS011;11798;51.528;7.240;2022-12-18T02:19:24;23.92;;;13.40;;
23258;SDS011;11798;51.528;7.240;2022-12-18T02:27:24;32.22;;;14.93;;
23258;SDS011;11798;51.528;7.240;2022-12-18T02:29:51;27.73;;;14.65;;
23258;SDS011;11798;51.528;7.240;2022-12-18T02:32:29;24.90;;;13.60;;
23258;SDS011;11798;51.528;7.240;2022-12-18T02:34:58;29.65;;;14.48;;
23258;SDS011;11798;51.528;7.240;2022-12-18T02:37:25;23.30;;;13.57;;
23258;SDS011;11798;51.528;7.240;2022-12-18T02:39:53;25.33;;;13.85;;
23258;SDS011;11798;51.528;7.240;2022-12-18T02:42:21;24.13;;;14.32;;
23258;SDS011;11798;51.528;7.240;2022-12-18T02:44:48;26.88;;;14.77;;
23258;SDS011;11798;51.528;7.240;2022-12-18T02:47:17;32.72;;;15.38;;
23258;SDS011;11798;51.528;7.240;2022-12-18T02:50:48;26.10;;;14.50;;
23258;SDS011;11798;51.528;7.240;2022-12-18T02:53:22;29.50;;;13.88;;
23258;SDS011;11798;51.528;7.240;2022-12-18T03:04:27;32.70;;;17.70;;
23258;SDS011;11798;51.528;7.240;2022-12-18T03:06:57;43.30;;;22.35;;
23258;SDS011;11798;51.528;7.240;2022-12-18T03:09:34;58.13;;;28.90;;
23258;SDS011;11798;51.528;7.240;2022-12-18T03:12:49;63.28;;;30.85;;
23258;SDS011;11798;51.528;7.240;2022-12-18T03:17:32;68.88;;;34.35;;
23258;SDS011;11798;51.528;7.240;2022-12-18T03:20:04;61.88;;;32.75;;
23258;SDS011;11798;51.528;7.240;2022-12-18T03:22:34;63.13;;;33.75;;
23258;SDS011;11798;51.528;7.240;2022-12-18T03:25:03;62.92;;;30.05;;
23258;SDS011;11798;51.528;7.240;2022-12-18T03:27:32;51.72;;;24.45;;
23258;SDS011;11798;51.528;7.240;2022-12-18T03:30:05;43.20;;;23.40;;
23258;SDS011;11798;51.528;7.240;2022-12-18T03:32:36;51.55;;;28.48;;
23258;SDS011;11798;51.528;7.240;2022-12-18T03:35:26;48.67;;;25.23;;
23258;SDS011;11798;51.528;7.240;2022-12-18T03:37:54;55.50;;;26.90;;
23258;SDS011;11798;51.528;7.240;2022-12-18T03:40:21;50.27;;;27.10;;
23258;SDS011;11798;51.528;7.240;2022-12-18T03:43:03;55.55;;;28.70;;
23258;SDS011;11798;51.528;7.240;2022-12-18T03:45:52;55.33;;;28.88;;
23258;SDS011;11798;51.528;7.240;2022-12-18T03:48:32;60.05;;;29.20;;
23258;SDS011;11798;51.528;7.240;2022-12-18T03:51:07;59.60;;;30.30;;
23258;SDS011;11798;51.528;7.240;2022-12-18T03:53:55;58.50;;;29.63;;
23258;SDS011;11798;51.528;7.240;2022-12-18T03:56:25;56.13;;;29.05;;
23258;SDS011;11798;51.528;7.240;2022-12-18T03:58:54;59.38;;;28.95;;
23258;SDS011;11798;51.528;7.240;2022-12-18T04:01:24;62.08;;;28.38;;
23258;SDS011;11798;51.528;7.240;2022-12-18T04:03:58;47.92;;;25.35;;
23258;SDS011;11798;51.528;7.240;2022-12-18T04:06:25;57.47;;;28.02;;
23258;SDS011;11798;51.528;7.240;2022-12-18T04:08:51;54.63;;;26.53;;
23258;SDS011;11798;51.528;7.240;2022-12-18T04:11:17;50.78;;;25.83;;
23258;SDS011;11798;51.528;7.240;2022-12-18T04:13:43;43.53;;;24.27;;
23258;SDS011;11798;51.528;7.240;2022-12-18T04:16:08;52.13;;;25.37;;
23258;SDS011;11798;51.528;7.240;2022-12-18T04:18:34;44.77;;;24.30;;
23258;SDS011;11798;51.528;7.240;2022-12-18T04:21:01;49.28;;;25.25;;
23258;SDS011;11798;51.528;7.240;2022-12-18T04:23:27;46.42;;;24.35;;
23258;SDS011;11798;51.528;7.240;2022-12-18T04:25:53;43.77;;;21.77;;
23258;SDS011;11798;51.528;7.240;2022-12-18T04:28:19;43.83;;;20.97;;
23258;SDS011;11798;51.528;7.240;2022-12-18T04:30:45;39.37;;;20.27;;
23258;SDS011;11798;51.528;7.240;2022-12-18T04:33:13;38.70;;;19.95;;
23258;SDS011;11798;51.528;7.240;2022-12-18T04:35:42;36.58;;;18.73;;
23258;SDS011;11798;51.528;7.240;2022-12-18T04:38:08;38.53;;;17.60;;
23258;SDS011;11798;51.528;7.240;2022-12-18T04:40:35;34.85;;;15.80;;
23258;SDS011;11798;51.528;7.240;2022-12-18T04:43:01;31.00;;;17.50;;
23258;SDS011;11798;51.528;7.240;2022-12-18T04:45:27;31.87;;;15.83;;
23258;SDS011;11798;51.528;7.240;2022-12-18T04:47:53;29.00;;;15.87;;
23258;SDS011;11798;51.528;7.240;2022-12-18T04:50:18;29.47;;;15.47;;
23258;SDS011;11798;51.528;7.240;2022-12-18T04:52:44;28.53;;;15.57;;
23258;SDS011;11798;51.528;7.240;2022-12-18T04:55:09;33.97;;;16.30;;
23258;SDS011;11798;51.528;7.240;2022-12-18T04:57:35;28.80;;;15.57;;
23258;SDS011;11798;51.528;7.240;2022-12-18T05:00:01;27.20;;;14.10;;
23258;SDS011;11798;51.528;7.240;2022-12-18T05:02:27;27.15;;;13.68;;
23258;SDS011;11798;51.528;7.240;2022-12-18T05:04:53;24.77;;;13.80;;
23258;SDS011;11798;51.528;7.240;2022-12-18T05:07:19;24.83;;;15.07;;
23258;SDS011;11798;51.528;7.240;2022-12-18T05:09:44;27.63;;;13.87;;
23258;SDS011;11798;51.528;7.240;2022-12-18T05:12:10;24.03;;;12.30;;
23258;SDS011;11798;51.528;7.240;2022-12-18T05:14:35;24.37;;;13.00;;
23258;SDS011;11798;51.528;7.240;2022-12-18T05:17:01;29.37;;;14.63;;
23258;SDS011;11798;51.528;7.240;2022-12-18T05:19:27;28.83;;;15.27;;
23258;SDS011;11798;51.528;7.240;2022-12-18T05:21:52;28.83;;;14.57;;
23258;SDS011;11798;51.528;7.240;2022-12-18T05:24:18;26.37;;;14.20;;
23258;SDS011;11798;51.528;7.240;2022-12-18T05:26:43;25.17;;;14.07;;
23258;SDS011;11798;51.528;7.240;2022-12-18T05:29:09;24.83;;;14.00;;
23258;SDS011;11798;51.528;7.240;2022-12-18T05:31:37;25.13;;;14.48;;
23258;SDS011;11798;51.528;7.240;2022-12-18T05:34:03;31.42;;;16.10;;
23258;SDS011;11798;51.528;7.240;2022-12-18T05:36:28;27.77;;;14.87;;
23258;SDS011;11798;51.528;7.240;2022-12-18T05:38:54;25.23;;;14.93;;
23258;SDS011;11798;51.528;7.240;2022-12-18T05:41:20;28.60;;;14.87;;
23258;SDS011;11798;51.528;7.240;2022-12-18T05:43:45;26.00;;;13.67;;
23258;SDS011;11798;51.528;7.240;2022-12-18T05:46:12;27.10;;;15.00;;
23258;SDS011;11798;51.528;7.240;2022-12-18T05:48:40;26.67;;;13.98;;
23258;SDS011;11798;51.528;7.240;2022-12-18T05:51:07;25.83;;;14.23;;
23258;SDS011;11798;51.528;7.240;2022-12-18T05:53:34;28.38;;;14.50;;
23258;SDS011;11798;51.528;7.240;2022-12-18T05:56:05;22.08;;;13.52;;
23258;SDS011;11798;51.528;7.240;2022-12-18T05:58:33;24.40;;;13.70;;
23258;SDS011;11798;51.528;7.240;2022-12-18T06:01:05;28.48;;;14.63;;
23258;SDS011;11798;51.528;7.240;2022-12-18T06:03:36;31.33;;;15.88;;
23258;SDS011;11798;51.528;7.240;2022-12-18T06:06:01;32.53;;;17.43;;
23258;SDS011;11798;51.528;7.240;2022-12-18T06:08:27;35.87;;;19.53;;
23258;SDS011;11798;51.528;7.240;2022-12-18T06:10:53;37.50;;;19.90;;
23258;SDS011;11798;51.528;7.240;2022-12-18T06:13:19;37.93;;;20.90;;
23258;SDS011;11798;51.528;7.240;2022-12-18T06:15:45;35.35;;;21.33;;
23258;SDS011;11798;51.528;7.240;2022-12-18T06:18:11;44.60;;;22.23;;
23258;SDS011;11798;51.528;7.240;2022-12-18T06:20:36;37.53;;;21.80;;
23258;SDS011;11798;51.528;7.240;2022-12-18T06:23:04;40.85;;;21.77;;
23258;SDS011;11798;51.528;7.240;2022-12-18T06:25:30;42.90;;;22.77;;
23258;SDS011;11798;51.528;7.240;2022-12-18T06:27:56;37.10;;;23.40;;
23258;SDS011;11798;51.528;7.240;2022-12-18T06:30:22;44.73;;;22.33;;
23258;SDS011;11798;51.528;7.240;2022-12-18T06:32:48;42.70;;;22.80;;
23258;SDS011;11798;51.528;7.240;2022-12-18T06:35:14;44.75;;;22.98;;
23258;SDS011;11798;51.528;7.240;2022-12-18T06:37:40;41.50;;;22.30;;
23258;SDS011;11798;51.528;7.240;2022-12-18T06:40:06;45.20;;;21.80;;
23258;SDS011;11798;51.528;7.240;2022-12-18T06:42:32;47.58;;;23.10;;
23258;SDS011;11798;51.528;7.240;2022-12-18T06:44:57;44.57;;;23.53;;
23258;SDS011;11798;51.528;7.240;2022-12-18T06:47:23;42.10;;;22.73;;
23258;SDS011;11798;51.528;7.240;2022-12-18T06:49:49;44.13;;;23.97;;
23258;SDS011;11798;51.528;7.240;2022-12-18T06:52:14;46.23;;;23.03;;
23258;SDS011;11798;51.528;7.240;2022-12-18T06:54:40;42.67;;;21.73;;
23258;SDS011;11798;51.528;7.240;2022-12-18T06:57:05;42.00;;;23.30;;
23258;SDS011;11798;51.528;7.240;2022-12-18T06:59:31;39.10;;;22.57;;
23258;SDS011;11798;51.528;7.240;2022-12-18T07:01:57;39.17;;;21.37;;
23258;SDS011;11798;51.528;7.240;2022-12-18T07:04:26;33.83;;;19.40;;
23258;SDS011;11798;51.528;7.240;2022-12-18T07:06:53;35.63;;;19.45;;
23258;SDS011;11798;51.528;7.240;2022-12-18T07:09:18;34.27;;;17.10;;
23258;SDS011;11798;51.528;7.240;2022-12-18T07:11:44;35.07;;;17.23;;
23258;SDS011;11798;51.528;7.240;2022-12-18T07:14:10;26.00;;;15.77;;
23258;SDS011;11798;51.528;7.240;2022-12-18T07:16:35;25.47;;;15.23;;
23258;SDS011;11798;51.528;7.240;2022-12-18T07:19:01;30.40;;;15.63;;
23258;SDS011;11798;51.528;7.240;2022-12-18T07:21:26;26.97;;;15.10;;
23258;SDS011;11798;51.528;7.240;2022-12-18T07:23:52;28.00;;;15.10;;
23258;SDS011;11798;51.528;7.240;2022-12-18T07:26:18;28.23;;;14.40;;
23258;SDS011;11798;51.528;7.240;2022-12-18T07:28:45;26.38;;;15.00;;
23258;SDS011;11798;51.528;7.240;2022-12-18T07:31:13;23.10;;;13.63;;
23258;SDS011;11798;51.528;7.240;2022-12-18T07:33:42;27.52;;;14.65;;
23258;SDS011;11798;51.528;7.240;2022-12-18T07:36:08;21.83;;;13.38;;
23258;SDS011;11798;51.528;7.240;2022-12-18T07:38:35;26.33;;;14.23;;
23258;SDS011;11798;51.528;7.240;2022-12-18T07:41:01;23.13;;;13.27;;
23258;SDS011;11798;51.528;7.240;2022-12-18T07:43:28;24.48;;;14.07;;
23258;SDS011;11798;51.528;7.240;2022-12-18T07:45:53;28.93;;;15.90;;
23258;SDS011;11798;51.528;7.240;2022-12-18T07:48:19;26.93;;;16.27;;
23258;SDS011;11798;51.528;7.240;2022-12-18T07:50:44;27.90;;;16.33;;
23258;SDS011;11798;51.528;7.240;2022-12-18T07:53:10;27.40;;;14.83;;
23258;SDS011;11798;51.528;7.240;2022-12-18T07:55:35;30.33;;;17.33;;
23258;SDS011;11798;51.528;7.240;2022-12-18T07:58:02;34.90;;;17.93;;
23258;SDS011;11798;51.528;7.240;2022-12-18T08:00:28;29.92;;;16.40;;
23258;SDS011;11798;51.528;7.240;2022-12-18T08:02:54;31.87;;;17.30;;
23258;SDS011;11798;51.528;7.240;2022-12-18T08:05:19;31.80;;;19.17;;
23258;SDS011;11798;51.528;7.240;2022-12-18T08:07:46;36.73;;;20.40;;
23258;SDS011;11798;51.528;7.240;2022-12-18T08:10:11;35.70;;;18.63;;
23258;SDS011;11798;51.528;7.240;2022-12-18T08:12:37;31.60;;;18.10;;
23258;SDS011;11798;51.528;7.240;2022-12-18T08:15:03;32.40;;;18.27;;
23258;SDS011;11798;51.528;7.240;2022-12-18T08:17:29;35.20;;;18.52;;
23258;SDS011;11798;51.528;7.240;2022-12-18T08:19:55;29.60;;;17.77;;
23258;SDS011;11798;51.528;7.240;2022-12-18T08:22:20;36.87;;;21.87;;
23258;SDS011;11798;51.528;7.240;2022-12-18T08:24:55;33.37;;;19.23;;
23258;SDS011;11798;51.528;7.240;2022-12-18T08:27:23;34.25;;;19.63;;
23258;SDS011;11798;51.528;7.240;2022-12-18T08:29:48;45.33;;;22.30;;
23258;SDS011;11798;51.528;7.240;2022-12-18T08:32:14;37.23;;;21.07;;
23258;SDS011;11798;51.528;7.240;2022-12-18T08:34:40;40.03;;;23.07;;
23258;SDS011;11798;51.528;7.240;2022-12-18T08:37:05;43.97;;;26.23;;
23258;SDS011;11798;51.528;7.240;2022-12-18T08:39:31;44.63;;;24.70;;
23258;SDS011;11798;51.528;7.240;2022-12-18T08:41:56;50.70;;;27.17;;
23258;SDS011;11798;51.528;7.240;2022-12-18T08:44:42;52.60;;;28.77;;
23258;SDS011;11798;51.528;7.240;2022-12-18T08:47:08;47.40;;;26.50;;
23258;SDS011;11798;51.528;7.240;2022-12-18T08:49:33;55.60;;;31.07;;
23258;SDS011;11798;51.528;7.240;2022-12-18T08:52:00;48.78;;;27.40;;
23258;SDS011;11798;51.528;7.240;2022-12-18T08:54:26;45.83;;;24.30;;
23258;SDS011;11798;51.528;7.240;2022-12-18T08:56:52;45.17;;;24.87;;
23258;SDS011;11798;51.528;7.240;2022-12-18T08:59:18;40.20;;;21.87;;
23258;SDS011;11798;51.528;7.240;2022-12-18T09:01:44;42.38;;;23.02;;
23258;SDS011;11798;51.528;7.240;2022-12-18T09:04:10;45.72;;;26.02;;
23258;SDS011;11798;51.528;7.240;2022-12-18T09:06:35;44.33;;;25.67;;
23258;SDS011;11798;51.528;7.240;2022-12-18T09:09:02;58.70;;;32.22;;
23258;SDS011;11798;51.528;7.240;2022-12-18T09:11:30;47.97;;;26.63;;
23258;SDS011;11798;51.528;7.240;2022-12-18T09:13:58;44.20;;;25.60;;
23258;SDS011;11798;51.528;7.240;2022-12-18T09:16:25;44.30;;;26.58;;
23258;SDS011;11798;51.528;7.240;2022-12-18T09:18:52;49.47;;;28.95;;
23258;SDS011;11798;51.528;7.240;2022-12-18T09:21:24;48.78;;;30.45;;
23258;SDS011;11798;51.528;7.240;2022-12-18T09:23:53;53.17;;;31.50;;
23258;SDS011;11798;51.528;7.240;2022-12-18T09:26:20;47.78;;;29.77;;
23258;SDS011;11798;51.528;7.240;2022-12-18T09:28:46;51.50;;;31.50;;
23258;SDS011;11798;51.528;7.240;2022-12-18T09:31:15;46.50;;;28.73;;
23258;SDS011;11798;51.528;7.240;2022-12-18T09:33:42;45.60;;;26.23;;
23258;SDS011;11798;51.528;7.240;2022-12-18T09:36:10;42.60;;;25.73;;
23258;SDS011;11798;51.528;7.240;2022-12-18T09:38:37;47.75;;;27.05;;
23258;SDS011;11798;51.528;7.240;2022-12-18T09:41:26;43.40;;;25.70;;
23258;SDS011;11798;51.528;7.240;2022-12-18T09:44:04;51.00;;;27.75;;
23258;SDS011;11798;51.528;7.240;2022-12-18T09:46:53;42.23;;;27.43;;
23258;SDS011;11798;51.528;7.240;2022-12-18T09:49:34;50.30;;;29.43;;
23258;SDS011;11798;51.528;7.240;2022-12-18T09:52:05;48.47;;;28.80;;
23258;SDS011;11798;51.528;7.240;2022-12-18T09:54:50;47.07;;;31.33;;
23258;SDS011;11798;51.528;7.240;2022-12-18T09:57:24;45.50;;;27.67;;
23258;SDS011;11798;51.528;7.240;2022-12-18T09:59:55;45.50;;;26.93;;
23258;SDS011;11798;51.528;7.240;2022-12-18T10:02:24;45.67;;;28.67;;
23258;SDS011;11798;51.528;7.240;2022-12-18T10:05:05;45.10;;;28.53;;
23258;SDS011;11798;51.528;7.240;2022-12-18T10:07:42;45.57;;;27.83;;
23258;SDS011;11798;51.528;7.240;2022-12-18T10:10:20;49.03;;;31.90;;
23258;SDS011;11798;51.528;7.240;2022-12-18T10:13:04;54.03;;;33.07;;
23258;SDS011;11798;51.528;7.240;2022-12-18T10:21:05;50.20;;;29.27;;
23258;SDS011;11798;51.528;7.240;2022-12-18T10:23:45;52.50;;;31.37;;
23258;SDS011;11798;51.528;7.240;2022-12-18T10:26:33;47.37;;;27.97;;
23258;SDS011;11798;51.528;7.240;2022-12-18T10:28:59;40.00;;;27.17;;
23258;SDS011;11798;51.528;7.240;2022-12-18T10:31:25;48.70;;;28.83;;
23258;SDS011;11798;51.528;7.240;2022-12-18T10:33:50;49.43;;;27.63;;
23258;SDS011;11798;51.528;7.240;2022-12-18T10:36:18;47.13;;;26.20;;
23258;SDS011;11798;51.528;7.240;2022-12-18T10:38:45;44.47;;;27.37;;
23258;SDS011;11798;51.528;7.240;2022-12-18T10:43:42;46.57;;;30.83;;
23258;SDS011;11798;51.528;7.240;2022-12-18T10:48:34;44.67;;;29.27;;
23258;SDS011;11798;51.528;7.240;2022-12-18T10:51:04;41.43;;;31.40;;
23258;SDS011;11798;51.528;7.240;2022-12-18T10:53:31;46.97;;;31.73;;
23258;SDS011;11798;51.528;7.240;2022-12-18T10:55:59;46.50;;;30.77;;
23258;SDS011;11798;51.528;7.240;2022-12-18T10:58:32;44.27;;;30.23;;
23258;SDS011;11798;51.528;7.240;2022-12-18T11:08:33;39.13;;;23.67;;
23258;SDS011;11798;51.528;7.240;2022-12-18T11:10:59;35.07;;;23.33;;
23258;SDS011;11798;51.528;7.240;2022-12-18T11:13:26;38.53;;;25.13;;
23258;SDS011;11798;51.528;7.240;2022-12-18T11:15:53;43.43;;;26.93;;
23258;SDS011;11798;51.528;7.240;2022-12-18T11:18:27;40.70;;;25.17;;
23258;SDS011;11798;51.528;7.240;2022-12-18T11:21:07;41.27;;;25.97;;
23258;SDS011;11798;51.528;7.240;2022-12-18T11:23:35;41.63;;;25.13;;
23258;SDS011;11798;51.528;7.240;2022-12-18T11:26:15;37.03;;;23.73;;
23258;SDS011;11798;51.528;7.240;2022-12-18T11:33:54;32.63;;;20.13;;
23258;SDS011;11798;51.528;7.240;2022-12-18T11:36:36;33.03;;;20.67;;
23258;SDS011;11798;51.528;7.240;2022-12-18T11:39:20;31.03;;;20.23;;
23258;SDS011;11798;51.528;7.240;2022-12-18T11:41:59;36.17;;;20.53;;
23258;SDS011;11798;51.528;7.240;2022-12-18T11:47:13;31.60;;;21.17;;
23258;SDS011;11798;51.528;7.240;2022-12-18T11:49:54;33.53;;;20.83;;
23258;SDS011;11798;51.528;7.240;2022-12-18T11:52:26;32.57;;;21.33;;
23258;SDS011;11798;51.528;7.240;2022-12-18T11:54:59;31.10;;;20.63;;
23258;SDS011;11798;51.528;7.240;2022-12-18T11:57:38;33.37;;;21.33;;
23258;SDS011;11798;51.528;7.240;2022-12-18T12:00:24;30.23;;;20.80;;
23258;SDS011;11798;51.528;7.240;2022-12-18T12:06:08;33.30;;;20.57;;
23258;SDS011;11798;51.528;7.240;2022-12-18T12:22:32;32.87;;;21.07;;
23258;SDS011;11798;51.528;7.240;2022-12-18T12:27:44;33.03;;;20.53;;
23258;SDS011;11798;51.528;7.240;2022-12-18T12:30:30;30.90;;;19.13;;
23258;SDS011;11798;51.528;7.240;2022-12-18T12:38:41;32.23;;;20.27;;
23258;SDS011;11798;51.528;7.240;2022-12-18T12:41:16;35.27;;;22.60;;
23258;SDS011;11798;51.528;7.240;2022-12-18T12:44:05;30.53;;;21.37;;
23258;SDS011;11798;51.528;7.240;2022-12-18T12:46:35;36.47;;;23.13;;
23258;SDS011;11798;51.528;7.240;2022-12-18T12:49:04;32.33;;;19.50;;
23258;SDS011;11798;51.528;7.240;2022-12-18T12:51:39;31.03;;;22.33;;
23258;SDS011;11798;51.528;7.240;2022-12-18T12:54:12;32.93;;;21.33;;
23258;SDS011;11798;51.528;7.240;2022-12-18T12:56:52;32.03;;;21.67;;
23258;SDS011;11798;51.528;7.240;2022-12-18T12:59:38;33.13;;;21.83;;
23258;SDS011;11798;51.528;7.240;2022-12-18T13:02:28;29.23;;;20.50;;
23258;SDS011;11798;51.528;7.240;2022-12-18T13:11:28;31.13;;;19.77;;
23258;SDS011;11798;51.528;7.240;2022-12-18T13:14:26;31.50;;;20.97;;
23258;SDS011;11798;51.528;7.240;2022-12-18T13:17:14;28.70;;;19.33;;
23258;SDS011;11798;51.528;7.240;2022-12-18T13:20:03;32.23;;;21.00;;
23258;SDS011;11798;51.528;7.240;2022-12-18T13:22:38;34.53;;;21.60;;
23258;SDS011;11798;51.528;7.240;2022-12-18T13:27:57;31.27;;;21.23;;
23258;SDS011;11798;51.528;7.240;2022-12-18T13:33:30;32.07;;;21.60;;
23258;SDS011;11798;51.528;7.240;2022-12-18T13:41:43;29.87;;;21.00;;
23258;SDS011;11798;51.528;7.240;2022-12-18T13:46:55;25.97;;;17.03;;
23258;SDS011;11798;51.528;7.240;2022-12-18T13:49:31;19.80;;;11.67;;
23258;SDS011;11798;51.528;7.240;2022-12-18T13:52:02;13.07;;;8.90;;
23258;SDS011;11798;51.528;7.240;2022-12-18T13:54:39;14.00;;;8.67;;
23258;SDS011;11798;51.528;7.240;2022-12-18T13:57:24;16.83;;;8.00;;
23258;SDS011;11798;51.528;7.240;2022-12-18T13:59:54;14.90;;;8.40;;
23258;SDS011;11798;51.528;7.240;2022-12-18T14:02:21;10.47;;;7.10;;
23258;SDS011;11798;51.528;7.240;2022-12-18T14:04:51;10.43;;;7.10;;
23258;SDS011;11798;51.528;7.240;2022-12-18T14:07:22;14.97;;;8.13;;
23258;SDS011;11798;51.528;7.240;2022-12-18T14:09:53;11.50;;;6.90;;
23258;SDS011;11798;51.528;7.240;2022-12-18T14:15:20;11.43;;;6.83;;
23258;SDS011;11798;51.528;7.240;2022-12-18T14:17:52;13.10;;;7.43;;
23258;SDS011;11798;51.528;7.240;2022-12-18T14:20:20;11.63;;;7.63;;
23258;SDS011;11798;51.528;7.240;2022-12-18T14:22:47;16.30;;;8.57;;
23258;SDS011;11798;51.528;7.240;2022-12-18T14:25:21;12.57;;;7.33;;
23258;SDS011;11798;51.528;7.240;2022-12-18T14:27:53;12.80;;;7.90;;
23258;SDS011;11798;51.528;7.240;2022-12-18T14:30:37;13.20;;;8.23;;
23258;SDS011;11798;51.528;7.240;2022-12-18T14:38:33;18.63;;;8.53;;
23258;SDS011;11798;51.528;7.240;2022-12-18T14:41:04;14.67;;;8.83;;
23258;SDS011;11798;51.528;7.240;2022-12-18T14:43:41;14.87;;;8.60;;
23258;SDS011;11798;51.528;7.240;2022-12-18T14:46:28;13.63;;;8.03;;
23258;SDS011;11798;51.528;7.240;2022-12-18T14:48:54;15.10;;;8.53;;
23258;SDS011;11798;51.528;7.240;2022-12-18T14:51:24;16.67;;;9.27;;
23258;SDS011;11798;51.528;7.240;2022-12-18T14:54:04;14.27;;;8.67;;
23258;SDS011;11798;51.528;7.240;2022-12-18T14:56:44;14.50;;;8.77;;
23258;SDS011;11798;51.528;7.240;2022-12-18T14:59:20;16.47;;;9.60;;
23258;SDS011;11798;51.528;7.240;2022-12-18T15:02:10;17.73;;;9.27;;
23258;SDS011;11798;51.528;7.240;2022-12-18T15:07:41;13.23;;;8.53;;
23258;SDS011;11798;51.528;7.240;2022-12-18T15:10:16;17.40;;;9.10;;
23258;SDS011;11798;51.528;7.240;2022-12-18T15:20:30;17.10;;;9.67;;
23258;SDS011;11798;51.528;7.240;2022-12-18T15:22:57;16.30;;;9.30;;
23258;SDS011;11798;51.528;7.240;2022-12-18T15:25:31;20.50;;;9.17;;
23258;SDS011;11798;51.528;7.240;2022-12-18T15:28:01;15.30;;;9.67;;
23258;SDS011;11798;51.528;7.240;2022-12-18T15:30:28;14.53;;;9.27;;
23258;SDS011;11798;51.528;7.240;2022-12-18T15:33:15;16.17;;;9.30;;
23258;SDS011;11798;51.528;7.240;2022-12-18T15:36:00;15.67;;;9.27;;
23258;SDS011;11798;51.528;7.240;2022-12-18T15:38:27;15.77;;;9.57;;
23258;SDS011;11798;51.528;7.240;2022-12-18T15:40:53;16.27;;;9.73;;
23258;SDS011;11798;51.528;7.240;2022-12-18T15:43:22;19.87;;;10.33;;
23258;SDS011;11798;51.528;7.240;2022-12-18T15:46:06;17.27;;;9.73;;
23258;SDS011;11798;51.528;7.240;2022-12-18T15:48:39;17.10;;;11.00;;
23258;SDS011;11798;51.528;7.240;2022-12-18T15:51:10;14.90;;;10.33;;
23258;SDS011;11798;51.528;7.240;2022-12-18T15:53:40;15.60;;;10.60;;
23258;SDS011;11798;51.528;7.240;2022-12-18T15:56:10;17.10;;;10.40;;
23258;SDS011;11798;51.528;7.240;2022-12-18T15:58:55;17.53;;;10.77;;
23258;SDS011;11798;51.528;7.240;2022-12-18T16:01:22;22.93;;;14.43;;
23258;SDS011;11798;51.528;7.240;2022-12-18T16:03:49;18.87;;;11.50;;
23258;SDS011;11798;51.528;7.240;2022-12-18T16:06:15;17.20;;;11.07;;
23258;SDS011;11798;51.528;7.240;2022-12-18T16:08:40;20.47;;;11.93;;
23258;SDS011;11798;51.528;7.240;2022-12-18T16:11:08;17.40;;;11.23;;
23258;SDS011;11798;51.528;7.240;2022-12-18T16:13:44;20.60;;;12.20;;
23258;SDS011;11798;51.528;7.240;2022-12-18T16:16:10;22.10;;;11.77;;
23258;SDS011;11798;51.528;7.240;2022-12-18T16:18:36;23.80;;;12.33;;
23258;SDS011;11798;51.528;7.240;2022-12-18T16:21:01;21.17;;;12.70;;
23258;SDS011;11798;51.528;7.240;2022-12-18T16:23:27;22.23;;;14.43;;
23258;SDS011;11798;51.528;7.240;2022-12-18T16:25:53;23.50;;;13.10;;
23258;SDS011;11798;51.528;7.240;2022-12-18T16:28:19;24.57;;;12.80;;
23258;SDS011;11798;51.528;7.240;2022-12-18T16:30:44;22.37;;;13.93;;
23258;SDS011;11798;51.528;7.240;2022-12-18T16:33:10;22.87;;;13.37;;
23258;SDS011;11798;51.528;7.240;2022-12-18T16:35:36;24.73;;;13.33;;
23258;SDS011;11798;51.528;7.240;2022-12-18T16:38:02;22.67;;;13.30;;